Prior Lake, MN (55372)

3:58 PM CST on January 19, 2017 (GMT -0600)
Carriage Hills - KB9ZI/Skywarn | | Change Station

Elev 960 ft 44.74 °N, 93.44 °W | Updated 3 seconds ago

Overcast
Overcast
37.5 °F
Feels Like 35 °F
N
3.5
Wind Variable Wind from ESE
Gusts 3.5 mph

Today
High -- | Low -- °F
--% Chance of Precip.
Yesterday
High -- | Low -- °F
Precip. -- in
Pressure 29.75 in
Visibility 8.0 miles
Clouds Overcast 6500 ft
Windchill 35 °F
Dew Point 32 °F
Humidity 82%
Rainfall 0.00 in
Snow Depth Not available.
7:44 AM 5:04 PM
Waning Gibbous, 50% visible
METAR KFCM 192153Z 11006KT 8SM OVC065 03/00 A2973 RMK AO2 SLP075 T00280000
Pressure 29.75 in
Visibility 8.0 miles
Clouds Overcast 6500 ft
Windchill 35 °F
Dew Point 32 °F
Humidity 82%
Rainfall 0.00 in
Snow Depth Not available.
7:44 AM 5:04 PM
Waning Gibbous, 50% visible
METAR KFCM 192153Z 11006KT 8SM OVC065 03/00 A2973 RMK AO2 SLP075 T00280000

Get Your Daily Forecast Email!

Thanks for signing up!

Be on the lookout for a verification email in your inbox.

You'll start receiving the daily forecast at 8 AM.

×

10-Day Weather Forecast

Almanac

Astronomy

Jan. 19, 2017 Rise Set
Actual Time
Civil Twilight
Nautical Twilight
Astronomical Twilight
Moon
Length of Visible Light
Length of Day
Tomorrow will be .
, % of the Moon is Illuminated

Today's Extremes

State Highs State Lows

Community

WunderPhotos

Upload Photos

1,962,540 photos uploaded!

WunderBlog® & News

Nearby

Air Quality

  Air Quality AQ Index Pollutant
Not available.

Snow Depth

Station Depth Elevation

Earthquake Activity

City Distance Mag. Time & Date
Minimum magnitude displayed is 2.5.

Coastal Water Temperatures

Place Temperature

Stations

Nearby Weather Stations

Station Location Temp. Windchill Dew Point Humidity Wind Precip. Elev Updated Type
                   

Watches & Warnings

There are currently no watches in effect.